Time;durP1;ratioP1;P1;durP2;ratioP2;P2;SDS_P1;SDS_P2;PMS_P1;PMS_P2;Temp;Humidity;BMP_temperature;BMP_pressure;BME280_temperature;BME280_humidity;BME280_pressure;Samples;Min_cycle;Max_cycle;Signal;HPM_P1;HPM_P2
2021/12/01 00:00:17;;;;;;;2.57;1.90;;;;;;;4.47;47.93;100910.31;2097133;28;20179;-66
2021/12/01 00:01:17;;;;;;;3.60;2.00;;;;;;;4.41;48.23;100906.38;2098327;28;20163;-66
2021/12/01 00:02:18;;;;;;;2.70;1.97;;;;;;;4.43;48.26;100909.53;2098470;28;20168;-66
2021/12/01 00:03:19;;;;;;;3.13;2.10;;;;;;;3.52;48.57;100788.31;2098316;28;20186;-66
2021/12/01 00:04:19;;;;;;;2.97;1.77;;;;;;;4.27;49.17;100900.03;2098430;28;20680;-66
2021/12/01 00:05:27;;;;;;;3.50;2.00;;;;;;;4.29;49.20;100912.19;2098208;28;20799;-66
2021/12/01 00:06:29;;;;;;;2.83;2.28;;;;;;;4.32;48.68;100903.19;2098171;28;20175;-66
2021/12/01 00:07:30;;;;;;;3.00;2.08;;;;;;;4.37;49.00;100904.78;2098033;28;20189;-66
2021/12/01 00:08:30;;;;;;;2.70;2.00;;;;;;;4.39;49.15;100905.97;2098292;28;20189;-66
2021/12/01 00:09:31;;;;;;;2.93;2.10;;;;;;;4.38;48.65;100903.63;2098203;28;20178;-66
2021/12/01 00:10:36;;;;;;;2.83;1.70;;;;;;;3.88;48.58;100850.41;2097242;28;20175;-66
2021/12/01 00:11:37;;;;;;;2.88;2.10;;;;;;;4.24;48.94;100904.31;2098314;28;20160;-66
2021/12/01 00:12:37;;;;;;;2.70;1.80;;;;;;;4.33;49.13;100936.91;2098285;28;20181;-66
2021/12/01 00:13:38;;;;;;;4.03;1.97;;;;;;;4.31;48.72;100922.78;2098234;28;20533;-66
2021/12/01 00:14:38;;;;;;;2.90;2.10;;;;;;;4.29;49.07;100920.41;2098248;28;20533;-67
2021/12/01 00:15:41;;;;;;;2.80;1.90;;;;;;;4.18;49.45;100922.31;2098240;28;20181;-66
2021/12/01 00:16:42;;;;;;;4.65;1.80;;;;;;;4.19;48.63;100921.13;2097865;28;20175;-67
2021/12/01 00:17:42;;;;;;;2.80;2.00;;;;;;;4.24;48.34;100915.28;2097846;28;20191;-66
2021/12/01 00:18:43;;;;;;;3.10;1.90;;;;;;;4.29;48.48;100912.19;2098338;28;20679;-66
2021/12/01 00:19:43;;;;;;;2.97;1.90;;;;;;;4.27;48.81;100928.22;2098182;28;20264;-66
2021/12/01 00:20:46;;;;;;;2.93;1.93;;;;;;;3.44;48.96;100805.84;2097119;28;20202;-66
2021/12/01 00:21:46;;;;;;;3.17;1.90;;;;;;;4.25;49.27;100927.84;2097716;28;20313;-66
2021/12/01 00:22:48;;;;;;;2.53;1.73;;;;;;;4.28;48.95;100931.78;2091574;28;20185;-66
2021/12/01 00:23:48;;;;;;;3.83;2.00;;;;;;;4.23;49.04;100932.94;2098122;28;20179;-66
2021/12/01 00:24:49;;;;;;;2.90;1.93;;;;;;;4.06;49.02;100902.63;2089164;28;20183;-66
2021/12/01 00:25:50;;;;;;;3.23;2.03;;;;;;;3.44;49.26;100799.59;2089209;28;20182;-66
2021/12/01 00:26:51;;;;;;;2.83;2.03;;;;;;;4.30;49.03;100945.88;2097792;28;20182;-66
2021/12/01 00:27:53;;;;;;;2.92;1.95;;;;;;;4.27;48.62;100943.91;2092886;28;20179;-66
2021/12/01 00:28:53;;;;;;;3.53;1.92;;;;;;;4.19;48.67;100947.78;2098245;28;20172;-66
2021/12/01 00:29:56;;;;;;;3.93;1.77;;;;;;;3.45;49.30;100829.34;2098202;28;20648;-67
2021/12/01 00:30:57;;;;;;;2.70;1.83;;;;;;;4.21;48.84;100967.41;2097221;28;20170;-66
2021/12/01 00:31:58;;;;;;;2.50;1.75;;;;;;;4.22;49.36;100964.28;2098096;28;20170;-66
2021/12/01 00:32:58;;;;;;;4.63;1.80;;;;;;;4.22;49.09;100972.50;2098151;28;20207;-66
2021/12/01 00:34:01;;;;;;;2.33;1.67;;;;;;;4.25;49.18;100963.50;2098127;28;20265;-66
2021/12/01 00:35:05;;;;;;;2.97;1.80;;;;;;;4.27;49.27;100966.63;2097999;28;20175;-67
2021/12/01 00:36:08;;;;;;;3.22;1.50;;;;;;;4.30;48.72;100967.84;2098099;28;20189;-67
2021/12/01 00:37:08;;;;;;;2.60;1.70;;;;;;;4.33;48.13;100962.41;2097569;28;20667;-66
2021/12/01 00:38:09;;;;;;;3.07;1.70;;;;;;;3.71;48.27;100869.47;2097709;28;20557;-66
2021/12/01 00:39:09;;;;;;;3.47;1.80;;;;;;;4.30;48.76;100954.91;2097940;28;20179;-66
2021/12/01 00:40:12;;;;;;;2.57;1.73;;;;;;;4.32;48.75;100952.56;2097098;28;20188;-66
2021/12/01 00:41:13;;;;;;;2.92;1.83;;;;;;;4.25;48.54;100965.47;2097774;28;20206;-66
2021/12/01 00:42:14;;;;;;;2.47;1.63;;;;;;;4.31;48.74;100955.72;2098134;28;20181;-66
2021/12/01 00:43:18;;;;;;;2.40;1.67;;;;;;;4.25;48.47;100984.69;2097951;28;20606;-66
2021/12/01 00:44:19;;;;;;;2.45;1.80;;;;;;;4.16;48.20;100954.81;2098112;28;20704;-66
2021/12/01 00:45:22;;;;;;;3.13;1.77;;;;;;;4.26;48.80;100967.03;2097995;28;20741;-66
2021/12/01 00:46:24;;;;;;;2.22;1.73;;;;;;;4.29;48.19;100975.28;2097932;28;20169;-66
2021/12/01 00:48:45;;;;;;;2.80;1.77;;;;;;;4.24;48.42;100944.66;2091807;28;20611;-67
2021/12/01 00:49:46;;;;;;;1.90;1.43;;;;;;;4.37;48.55;100967.91;2097815;28;20163;-66
2021/12/01 00:50:48;;;;;;;2.53;1.80;;;;;;;4.35;47.81;100979.25;2096893;28;20415;-66
2021/12/01 00:51:49;;;;;;;2.85;1.92;;;;;;;4.33;48.41;100970.63;2098008;28;20611;-66
2021/12/01 00:52:51;;;;;;;2.37;1.60;;;;;;;4.21;48.36;100953.69;2097976;28;20244;-66
2021/12/01 00:53:52;;;;;;;3.40;1.70;;;;;;;4.27;47.90;100983.09;2097893;28;20608;-66
2021/12/01 00:54:52;;;;;;;2.90;1.83;;;;;;;4.26;48.38;100976.03;2097880;28;20241;-66
2021/12/01 00:55:53;;;;;;;2.50;1.83;;;;;;;3.51;48.59;100854.44;2097777;28;20186;-67
2021/12/01 00:56:53;;;;;;;2.57;1.60;;;;;;;4.33;48.39;100964.34;2097791;28;20257;-66
2021/12/01 00:57:55;;;;;;;2.40;1.70;;;;;;;4.30;49.04;100960.41;2097561;28;20174;-66
2021/12/01 00:58:56;;;;;;;2.25;1.58;;;;;;;4.31;48.33;100961.19;2096517;28;20182;-66
2021/12/01 00:59:56;;;;;;;1.80;1.50;;;;;;;4.22;48.55;100955.25;2097798;28;20221;-66
2021/12/01 01:00:58;;;;;;;1.90;1.70;;;;;;;4.30;49.12;100974.13;2097269;28;20473;-66
2021/12/01 01:01:58;;;;;;;2.58;1.70;;;;;;;4.30;48.36;100962.34;2097777;28;20187;-66
2021/12/01 01:03:00;;;;;;;2.80;1.80;;;;;;;4.37;48.21;100973.38;2097817;28;20191;-66
2021/12/01 01:04:00;;;;;;;2.70;1.90;;;;;;;4.43;48.42;100966.38;2097954;28;20181;-66
2021/12/01 01:05:01;;;;;;;3.20;1.90;;;;;;;3.93;48.56;100885.72;2097795;28;20183;-66
2021/12/01 01:06:02;;;;;;;2.43;1.70;;;;;;;4.39;48.08;100946.34;2097829;28;20237;-66
2021/12/01 01:07:03;;;;;;;3.30;1.60;;;;;;;4.51;48.46;100965.25;2097804;28;20202;-66
2021/12/01 01:08:05;;;;;;;2.93;1.60;;;;;;;4.49;48.12;100962.88;2097804;28;20186;-66
2021/12/01 01:09:07;;;;;;;2.15;1.50;;;;;;;4.40;48.29;100954.19;2097163;28;20567;-66
2021/12/01 01:10:34;;;;;;;2.00;1.60;;;;;;;4.46;48.00;100962.88;2096975;28;20176;-66
2021/12/01 01:16:58;;;;;;;2.40;1.50;;;;;;;4.31;49.30;100966.69;2097532;28;20578;-67
2021/12/01 01:18:08;;;;;;;1.65;1.50;;;;;;;4.27;49.44;100965.88;2097358;28;20184;-66
2021/12/01 01:19:09;;;;;;;2.40;1.58;;;;;;;4.25;49.34;100982.69;2097525;28;20617;-66
2021/12/01 01:20:12;;;;;;;2.53;1.80;;;;;;;4.31;49.75;100969.44;2097005;28;20562;-67
2021/12/01 01:21:13;;;;;;;3.00;1.70;;;;;;;4.31;49.02;100974.91;2097316;28;20203;-66
2021/12/01 01:22:14;;;;;;;2.67;1.70;;;;;;;4.27;49.24;100979.59;2093621;28;20167;-67
2021/12/01 01:23:15;;;;;;;2.27;1.60;;;;;;;4.27;49.26;100985.06;2094847;28;20180;-66
2021/12/01 01:24:17;;;;;;;1.93;1.63;;;;;;;4.24;49.22;100983.88;2097879;28;20175;-66
2021/12/01 01:25:18;;;;;;;2.40;1.70;;;;;;;4.29;49.71;100982.72;2097666;28;20170;-66
2021/12/01 01:26:20;;;;;;;2.37;1.70;;;;;;;4.29;49.30;100989.00;2097732;28;20203;-66
2021/12/01 01:27:20;;;;;;;2.88;1.88;;;;;;;4.29;49.15;100989.00;2097583;28;20577;-66
2021/12/01 01:28:21;;;;;;;2.57;1.60;;;;;;;3.52;49.27;100878.72;2097625;28;20201;-67
2021/12/01 01:29:22;;;;;;;2.30;1.60;;;;;;;3.30;49.34;100843.31;2097380;28;20610;-66
2021/12/01 01:30:23;;;;;;;2.30;1.58;;;;;;;4.28;49.28;100992.13;2096642;28;20274;-66
2021/12/01 01:31:24;;;;;;;2.60;1.50;;;;;;;3.74;49.25;100899.66;2097477;28;20224;-66
2021/12/01 01:32:24;;;;;;;3.13;1.50;;;;;;;4.26;49.11;100976.03;2088796;28;20210;-67
2021/12/01 01:33:25;;;;;;;2.40;1.70;;;;;;;4.35;49.42;100992.16;2088812;28;20184;-66
2021/12/01 01:34:26;;;;;;;2.40;1.50;;;;;;;4.34;49.29;100991.41;2097761;28;20178;-67
2021/12/01 01:35:27;;;;;;;2.33;1.60;;;;;;;4.34;48.96;100988.66;2097621;28;20177;-66
2021/12/01 01:36:28;;;;;;;1.83;1.40;;;;;;;4.32;48.25;100979.22;2097618;28;20198;-66
2021/12/01 01:37:28;;;;;;;2.50;1.60;;;;;;;4.43;48.53;100980.88;2097361;28;20178;-66
2021/12/01 01:38:32;;;;;;;2.20;1.70;;;;;;;4.45;48.71;100972.25;2097255;28;20552;-66
2021/12/01 01:39:33;;;;;;;4.35;1.63;;;;;;;4.37;48.83;100976.91;2097242;28;20234;-66
2021/12/01 01:40:34;;;;;;;2.28;1.50;;;;;;;4.35;48.54;100979.25;2096555;28;20610;-67
2021/12/01 01:41:35;;;;;;;2.00;1.60;;;;;;;4.36;48.85;100978.06;2097562;28;20567;-66
2021/12/01 01:42:36;;;;;;;2.43;1.73;;;;;;;4.33;48.77;100965.13;2097645;28;20175;-66
2021/12/01 01:43:38;;;;;;;2.40;1.53;;;;;;;4.37;49.01;100965.16;2097612;28;20250;-66
2021/12/01 01:44:38;;;;;;;2.33;1.60;;;;;;;4.25;48.45;100949.00;2097630;28;20270;-66
2021/12/01 01:45:39;;;;;;;3.63;1.70;;;;;;;4.37;48.25;100973.38;2097621;28;20641;-66
2021/12/01 01:46:41;;;;;;;3.07;1.93;;;;;;;4.46;48.27;100969.13;2097608;28;20201;-66
2021/12/01 01:48:06;;;;;;;2.42;1.42;;;;;;;4.54;48.30;100967.22;2088692;28;20411;-66
2021/12/01 01:49:19;;;;;;;2.15;1.45;;;;;;;4.50;48.43;100966.41;2092025;28;20250;-66
2021/12/01 01:50:35;;;;;;;2.53;1.60;;;;;;;3.73;47.90;100851.50;2096796;28;20415;-66
2021/12/01 01:51:37;;;;;;;3.28;1.52;;;;;;;3.35;48.41;100810.88;2097594;28;20178;-66
2021/12/01 01:52:37;;;;;;;2.45;1.65;;;;;;;4.36;48.02;100975.34;2097516;28;20171;-66
2021/12/01 01:53:38;;;;;;;3.00;1.80;;;;;;;4.38;48.23;100974.97;2097612;28;20174;-66
2021/12/01 01:54:38;;;;;;;2.80;1.47;;;;;;;4.25;48.13;100949.00;2097360;28;20214;-66
2021/12/01 01:55:41;;;;;;;2.30;1.47;;;;;;;4.43;48.81;100982.81;2097574;28;20167;-66
2021/12/01 01:56:43;;;;;;;1.77;1.40;;;;;;;4.40;48.97;100987.13;2097458;28;20175;-66
2021/12/01 01:57:44;;;;;;;2.13;1.48;;;;;;;4.45;48.69;100988.72;2097403;28;20175;-66
2021/12/01 01:58:46;;;;;;;2.28;1.40;;;;;;;4.39;48.44;100968.28;2097040;28;20179;-66
2021/12/01 01:59:47;;;;;;;2.35;1.50;;;;;;;4.51;48.71;100985.22;2097323;28;20171;-66
2021/12/01 02:00:53;;;;;;;1.93;1.40;;;;;;;4.48;48.21;100975.03;2096446;28;20281;-66
2021/12/01 02:01:55;;;;;;;2.63;1.50;;;;;;;4.49;48.69;100970.31;2097465;28;20444;-67
2021/12/01 02:02:57;;;;;;;2.05;1.58;;;;;;;4.53;48.57;100969.19;2097550;28;20175;-66
2021/12/01 02:03:57;;;;;;;2.75;1.40;;;;;;;4.52;48.68;100970.34;2097603;28;20205;-66
2021/12/01 02:04:58;;;;;;;3.97;1.90;;;;;;;4.60;48.65;100973.91;2097523;28;20565;-66
2021/12/01 02:05:59;;;;;;;3.90;1.87;;;;;;;4.62;48.55;100957.88;2097539;28;20179;-66
2021/12/01 02:07:01;;;;;;;2.77;1.60;;;;;;;4.56;48.76;100973.88;2097451;28;20197;-66
2021/12/01 02:08:02;;;;;;;2.72;1.60;;;;;;;4.52;48.50;100950.34;2097599;28;20172;-66
2021/12/01 02:09:03;;;;;;;1.97;1.40;;;;;;;4.58;48.38;100946.88;2097208;28;20255;-66
2021/12/01 02:10:04;;;;;;;2.55;1.50;;;;;;;4.66;48.27;100950.44;2096248;28;20197;-66
2021/12/01 02:11:08;;;;;;;2.92;1.80;;;;;;;4.67;48.49;100952.00;2097410;28;20167;-66
2021/12/01 02:12:08;;;;;;;2.92;1.60;;;;;;;4.69;48.72;100946.91;2097498;28;20237;-66
2021/12/01 02:13:09;;;;;;;3.17;1.60;;;;;;;4.68;48.53;100948.88;2097390;28;20259;-66
2021/12/01 02:14:10;;;;;;;2.27;1.60;;;;;;;4.65;48.65;100935.13;2097495;28;20178;-66
2021/12/01 02:15:11;;;;;;;2.47;1.60;;;;;;;4.75;48.36;100940.66;2088490;28;20710;-66
2021/12/01 02:16:12;;;;;;;1.87;1.53;;;;;;;4.50;48.91;100897.78;2088796;28;20207;-66
2021/12/01 02:17:13;;;;;;;3.08;1.60;;;;;;;4.78;48.89;100961.84;2097063;28;20171;-66
2021/12/01 02:18:13;;;;;;;2.60;1.50;;;;;;;3.54;49.12;100747.59;2097615;28;20255;-66
2021/12/01 02:19:14;;;;;;;2.57;1.60;;;;;;;3.81;48.82;100776.38;2097213;28;20182;-66
2021/12/01 02:20:19;;;;;;;2.20;1.50;;;;;;;4.74;49.31;100933.63;2096296;28;20277;-66
2021/12/01 02:21:28;;;;;;;2.53;1.55;;;;;;;4.65;49.67;100944.16;2097167;28;20230;-66
2021/12/01 02:22:31;;;;;;;2.67;1.60;;;;;;;3.89;49.93;100813.59;2091269;28;20175;-66
2021/12/01 02:23:36;;;;;;;2.97;1.80;;;;;;;4.64;50.05;100926.09;2098550;28;20265;-66
2021/12/01 02:24:36;;;;;;;2.53;1.70;;;;;;;4.62;50.11;100922.19;2099123;28;20288;-66
2021/12/01 02:25:37;;;;;;;3.07;1.80;;;;;;;4.63;50.38;100918.25;2099103;28;20178;-66
2021/12/01 02:26:40;;;;;;;2.40;1.50;;;;;;;4.58;50.21;100916.69;2099154;28;20684;-66
2021/12/01 02:27:41;;;;;;;2.58;1.83;;;;;;;4.57;50.51;100923.31;2093977;28;20195;-66
2021/12/01 02:28:43;;;;;;;2.93;1.83;;;;;;;4.62;50.45;100922.19;2098830;28;20665;-66
2021/12/01 02:29:43;;;;;;;2.35;1.70;;;;;;;4.58;50.25;100904.91;2098980;28;20175;-66
2021/12/01 02:30:44;;;;;;;2.50;1.67;;;;;;;4.69;51.34;100914.75;2097999;28;20226;-66
2021/12/01 02:31:45;;;;;;;2.80;1.87;;;;;;;4.57;50.66;100898.59;2099162;28;20175;-66
2021/12/01 02:32:46;;;;;;;2.80;1.97;;;;;;;4.60;51.38;100910.78;2099033;28;20186;-66
2021/12/01 02:33:46;;;;;;;1.97;1.43;;;;;;;4.62;51.93;100906.47;2099102;28;20549;-66
2021/12/01 02:34:47;;;;;;;2.47;1.63;;;;;;;4.66;51.54;100909.25;2099012;28;20203;-67
2021/12/01 02:35:47;;;;;;;2.17;1.50;;;;;;;4.54;51.55;100877.44;2099086;28;20171;-67
2021/12/01 02:36:58;;;;;;;3.47;1.63;;;;;;;4.58;51.88;100893.91;2090087;28;20187;-66
2021/12/01 02:37:59;;;;;;;1.73;1.52;;;;;;;4.65;51.33;100892.00;2091213;28;20163;-66
2021/12/01 02:39:01;;;;;;;2.27;1.60;;;;;;;4.68;51.35;100895.94;2098718;28;20179;-67
2021/12/01 02:40:03;;;;;;;2.45;1.52;;;;;;;4.67;51.22;100883.38;2098038;28;20564;-67
2021/12/01 02:41:04;;;;;;;2.25;1.60;;;;;;;4.51;51.12;100855.47;2098814;28;20275;-66
2021/12/01 02:42:07;;;;;;;2.90;1.60;;;;;;;4.70;51.61;100885.34;2098843;28;20175;-66
2021/12/01 02:43:08;;;;;;;3.83;1.65;;;;;;;4.78;51.32;100884.19;2098882;28;20225;-66
2021/12/01 02:44:11;;;;;;;2.43;1.67;;;;;;;4.79;51.15;100878.34;2099047;28;20734;-67
2021/12/01 02:45:11;;;;;;;2.65;1.77;;;;;;;4.75;51.31;100893.19;2098868;28;20217;-66
2021/12/01 02:46:12;;;;;;;2.53;1.60;;;;;;;4.73;51.40;100881.81;2099099;28;20181;-66
2021/12/01 02:47:13;;;;;;;2.30;1.70;;;;;;;4.72;51.41;100888.50;2098847;28;20179;-66
2021/12/01 02:48:14;;;;;;;2.37;1.60;;;;;;;4.27;51.77;100810.28;2099065;28;20259;-66
2021/12/01 02:49:22;;;;;;;3.08;1.75;;;;;;;4.73;51.84;100879.84;2098591;28;20719;-66
2021/12/01 02:50:23;;;;;;;2.33;1.90;;;;;;;4.76;52.57;100881.03;2097805;28;20164;-66
2021/12/01 02:51:30;;;;;;;2.63;1.63;;;;;;;4.77;51.87;100886.16;2098819;28;20171;-65
2021/12/01 02:52:35;;;;;;;2.33;1.50;;;;;;;4.81;52.44;100891.66;2098951;28;20160;-66
2021/12/01 02:53:37;;;;;;;2.97;1.77;;;;;;;4.78;51.89;100882.22;2098794;28;20175;-66
2021/12/01 02:54:39;;;;;;;2.65;1.70;;;;;;;4.85;51.69;100893.25;2098901;28;20166;-66
2021/12/01 02:55:53;;;;;;;3.47;1.70;;;;;;;4.90;51.90;100887.38;2098830;28;20172;-67
2021/12/01 02:56:55;;;;;;;2.05;1.50;;;;;;;4.92;52.11;100895.25;2099011;28;20179;-65
2021/12/01 02:57:59;;;;;;;2.35;1.45;;;;;;;4.90;52.00;100890.13;2098424;28;20176;-66
2021/12/01 02:59:01;;;;;;;2.60;1.63;;;;;;;4.86;52.31;100880.28;2097539;28;20668;-66
2021/12/01 03:00:03;;;;;;;3.45;1.70;;;;;;;4.87;51.97;100890.13;2097968;28;20183;-66
2021/12/01 03:01:06;;;;;;;3.10;1.75;;;;;;;4.83;52.41;100873.63;2098168;28;20285;-66
2021/12/01 03:02:08;;;;;;;2.95;1.70;;;;;;;3.90;52.16;100729.41;2089910;28;20180;-66
2021/12/01 03:03:10;;;;;;;3.00;1.60;;;;;;;4.33;52.18;100816.19;2089888;28;20180;-66
2021/12/01 03:04:12;;;;;;;2.80;1.80;;;;;;;4.88;51.93;100881.47;2098887;28;20176;-66
2021/12/01 03:05:16;;;;;;;3.17;1.55;;;;;;;4.84;51.86;100883.44;2098703;28;20181;-66
2021/12/01 03:06:19;;;;;;;3.00;1.58;;;;;;;4.75;51.83;100855.56;2098880;28;20550;-67
2021/12/01 03:07:20;;;;;;;5.15;1.83;;;;;;;4.97;51.17;100875.63;2098748;28;20183;-66
2021/12/01 03:08:20;;;;;;;2.87;1.47;;;;;;;4.97;51.87;100886.63;2098771;28;20207;-66
2021/12/01 03:09:21;;;;;;;2.80;1.70;;;;;;;4.96;51.41;100876.78;2098508;28;20231;-66
2021/12/01 03:10:22;;;;;;;2.60;1.50;;;;;;;5.00;52.17;100888.56;2097802;28;20676;-66
2021/12/01 03:11:24;;;;;;;2.33;1.63;;;;;;;4.97;51.65;100881.91;2098503;28;20176;-66
2021/12/01 03:12:33;;;;;;;2.60;1.50;;;;;;;5.02;51.25;100887.03;2098753;28;20175;-65
2021/12/01 03:13:34;;;;;;;2.40;1.50;;;;;;;4.33;51.54;100778.56;2098732;28;20167;-66
2021/12/01 03:14:34;;;;;;;4.13;1.70;;;;;;;5.08;51.60;100876.44;2098699;28;20588;-66
2021/12/01 03:15:35;;;;;;;1.70;1.43;;;;;;;5.06;51.53;100876.03;2098754;28;20553;-66
2021/12/01 03:16:35;;;;;;;2.23;1.60;;;;;;;5.07;51.51;100878.41;2098769;28;20170;-66
2021/12/01 03:17:36;;;;;;;4.67;1.80;;;;;;;5.07;51.58;100885.88;2098428;28;20175;-66
2021/12/01 03:18:36;;;;;;;2.33;1.30;;;;;;;5.09;51.34;100873.31;2098534;28;20175;-67
2021/12/01 03:19:37;;;;;;;1.93;1.30;;;;;;;5.05;51.38;100883.50;2098554;28;20648;-66
2021/12/01 03:20:38;;;;;;;3.60;1.50;;;;;;;5.06;51.42;100881.53;2097405;28;20598;-66
2021/12/01 03:21:40;;;;;;;2.63;1.30;;;;;;;5.13;51.26;100882.34;2098589;28;20310;-67
2021/12/01 03:22:44;;;;;;;3.25;1.40;;;;;;;5.12;51.76;100890.97;2091541;28;21028;-66
2021/12/01 03:23:44;;;;;;;2.63;1.77;;;;;;;5.11;51.39;100894.88;2098601;28;20167;-67
2021/12/01 03:24:45;;;;;;;2.73;1.23;;;;;;;5.16;51.17;100892.56;2098587;28;20262;-67
2021/12/01 03:25:46;;;;;;;2.20;1.50;;;;;;;5.18;50.76;100895.69;2098623;28;20179;-66
2021/12/01 03:26:46;;;;;;;3.38;1.60;;;;;;;5.14;51.33;100894.13;2098610;28;20179;-66
2021/12/01 03:27:47;;;;;;;3.80;1.60;;;;;;;5.13;50.91;100901.56;2098612;28;20179;-66
2021/12/01 03:28:48;;;;;;;2.63;1.53;;;;;;;5.17;51.59;100902.38;2098581;28;20316;-66
2021/12/01 03:29:49;;;;;;;3.73;1.87;;;;;;;5.13;51.11;100898.03;2098294;28;20175;-66
2021/12/01 03:30:50;;;;;;;2.35;1.45;;;;;;;4.68;51.47;100836.34;2097347;28;20259;-67
2021/12/01 03:31:50;;;;;;;2.40;1.70;;;;;;;5.12;50.88;100901.97;2098458;28;20669;-66
2021/12/01 03:32:51;;;;;;;2.43;1.40;;;;;;;5.17;51.31;100902.38;2098647;28;20190;-66
2021/12/01 03:33:53;;;;;;;2.30;1.48;;;;;;;5.16;51.29;100900.00;2098449;28;20179;-66
2021/12/01 03:34:53;;;;;;;2.90;1.50;;;;;;;5.09;51.51;100889.00;2097958;28;20258;-66
2021/12/01 03:35:54;;;;;;;2.23;1.33;;;;;;;5.25;51.12;100905.91;2098590;28;20641;-66
2021/12/01 03:36:56;;;;;;;4.10;1.40;;;;;;;5.30;51.88;100908.28;2098593;28;20168;-66
2021/12/01 03:37:57;;;;;;;3.15;1.85;;;;;;;5.26;51.70;100907.47;2098244;28;20549;-66
2021/12/01 03:38:57;;;;;;;2.43;1.30;;;;;;;5.31;51.81;100926.34;2098401;28;20262;-66
2021/12/01 03:39:58;;;;;;;2.40;1.50;;;;;;;5.39;52.01;100933.44;2097844;28;20449;-67
2021/12/01 03:40:59;;;;;;;2.17;1.30;;;;;;;5.47;51.73;100930.31;2098001;28;20198;-67
2021/12/01 03:42:00;;;;;;;2.03;1.30;;;;;;;4.91;51.46;100831.28;2098667;28;20174;-66
2021/12/01 03:43:01;;;;;;;2.13;1.40;;;;;;;5.61;51.21;100937.78;2098339;28;20194;-67
2021/12/01 03:44:02;;;;;;;3.07;1.30;;;;;;;4.87;51.38;100830.47;2098628;28;20635;-66
2021/12/01 03:45:04;;;;;;;4.53;1.33;;;;;;;5.25;51.63;100905.91;2098349;28;20172;-66
2021/12/01 03:46:04;;;;;;;1.67;1.27;;;;;;;5.74;51.49;100948.00;2098543;28;20178;-67
2021/12/01 03:47:05;;;;;;;2.10;1.40;;;;;;;5.73;51.66;100945.63;2098395;28;20186;-66
2021/12/01 03:48:05;;;;;;;1.93;1.30;;;;;;;5.77;51.12;100940.94;2098746;28;20200;-66
2021/12/01 03:49:06;;;;;;;1.90;1.30;;;;;;;5.79;51.65;100933.09;2098304;28;20249;-66
2021/12/01 03:50:08;;;;;;;2.03;1.03;;;;;;;5.83;52.12;100940.19;2097444;28;20260;-66
2021/12/01 03:51:08;;;;;;;2.65;1.40;;;;;;;5.83;51.52;100933.88;2098234;28;20176;-67
2021/12/01 03:52:14;;;;;;;2.90;1.60;;;;;;;5.86;51.45;100947.66;2098615;28;20447;-66
2021/12/01 03:53:20;;;;;;;2.40;1.50;;;;;;;5.92;51.12;100940.59;2098354;28;20170;-66
2021/12/01 03:54:20;;;;;;;3.45;1.73;;;;;;;4.76;51.71;100752.00;2098554;28;20191;-66
2021/12/01 03:55:21;;;;;;;2.17;1.23;;;;;;;6.00;51.61;100944.13;2098354;28;20501;-66
2021/12/01 03:56:21;;;;;;;2.40;1.30;;;;;;;5.99;50.92;100948.81;2098496;28;20228;-65
2021/12/01 03:57:22;;;;;;;2.77;1.30;;;;;;;5.91;52.07;100947.28;2098234;28;20176;-66
2021/12/01 03:58:23;;;;;;;2.77;1.40;;;;;;;5.92;52.33;100954.34;2098478;28;20175;-66
2021/12/01 03:59:23;;;;;;;2.07;1.37;;;;;;;5.92;52.53;100943.34;2097906;28;20186;-66
2021/12/01 04:00:24;;;;;;;2.27;1.40;;;;;;;5.78;51.68;100909.50;2097281;28;20175;-67
2021/12/01 04:01:24;;;;;;;3.23;1.10;;;;;;;5.97;51.97;100942.94;2097935;28;20763;-67
2021/12/01 04:02:25;;;;;;;2.97;1.60;;;;;;;5.18;52.02;100810.53;2098391;28;20175;-66
2021/12/01 04:03:25;;;;;;;2.23;1.27;;;;;;;6.07;51.70;100925.66;2098364;28;20181;-66
2021/12/01 04:04:26;;;;;;;2.47;1.27;;;;;;;6.11;51.67;100936.63;2098433;28;20168;-66
2021/12/01 04:05:27;;;;;;;2.17;1.30;;;;;;;6.09;51.88;100927.97;2098246;28;20553;-66
2021/12/01 04:06:28;;;;;;;2.05;1.30;;;;;;;6.09;51.88;100923.28;2098449;28;20180;-67
2021/12/01 04:07:28;;;;;;;1.67;1.23;;;;;;;6.10;51.56;100927.59;2098244;28;20228;-67
2021/12/01 04:08:29;;;;;;;1.70;1.13;;;;;;;6.11;51.28;100928.38;2098474;28;20175;-66
2021/12/01 04:09:31;;;;;;;2.60;1.10;;;;;;;6.11;51.68;100937.41;2098391;28;20304;-67
2021/12/01 04:10:32;;;;;;;1.83;1.00;;;;;;;6.13;51.32;100935.06;2097118;28;20418;-66
2021/12/01 04:11:33;;;;;;;2.47;1.17;;;;;;;6.06;51.35;100929.56;2098192;28;20209;-66
2021/12/01 04:12:35;;;;;;;2.37;1.30;;;;;;;6.03;52.12;100937.81;2098266;28;20433;-67
2021/12/01 04:13:35;;;;;;;3.22;1.20;;;;;;;4.84;51.52;100748.09;2098211;28;20270;-66
2021/12/01 04:14:36;;;;;;;2.63;1.30;;;;;;;6.08;51.73;100949.22;2098109;28;20182;-66
2021/12/01 04:15:36;;;;;;;2.20;1.30;;;;;;;6.03;51.47;100946.06;2098299;28;20663;-66
2021/12/01 04:16:37;;;;;;;3.47;1.20;;;;;;;5.97;52.15;100942.16;2098289;28;20164;-66
2021/12/01 04:17:40;;;;;;;2.37;1.30;;;;;;;5.94;52.22;100949.22;2097984;28;20177;-66
2021/12/01 04:18:40;;;;;;;1.80;1.08;;;;;;;5.97;52.22;100953.16;2098250;28;20233;-67
2021/12/01 04:19:41;;;;;;;1.83;1.10;;;;;;;5.95;52.18;100947.25;2098073;28;20249;-66
2021/12/01 04:20:42;;;;;;;1.70;1.00;;;;;;;5.93;52.93;100950.41;2096959;28;20596;-66
2021/12/01 04:21:43;;;;;;;1.73;1.10;;;;;;;5.16;52.10;100842.31;2097795;28;20223;-66
2021/12/01 04:22:45;;;;;;;1.75;1.00;;;;;;;5.94;52.37;100946.47;2098176;28;20543;-66
2021/12/01 04:23:45;;;;;;;2.28;1.20;;;;;;;5.82;52.70;100927.63;2098090;28;20175;-66
2021/12/01 04:24:46;;;;;;;1.83;1.00;;;;;;;6.02;52.47;100948.06;2098094;28;20167;-67
2021/12/01 04:25:47;;;;;;;1.83;1.00;;;;;;;6.03;52.64;100935.06;2098291;28;20657;-66
2021/12/01 04:26:47;;;;;;;1.70;1.00;;;;;;;6.11;52.35;100947.66;2098196;28;20172;-67
2021/12/01 04:27:48;;;;;;;1.53;1.00;;;;;;;6.00;52.89;100941.38;2098114;28;20670;-66
2021/12/01 04:28:49;;;;;;;1.67;1.10;;;;;;;6.02;52.31;100933.50;2098153;28;20195;-67
2021/12/01 04:29:49;;;;;;;1.37;0.97;;;;;;;6.10;53.25;100951.59;2098069;28;20172;-66
2021/12/01 04:30:50;;;;;;;2.13;1.03;;;;;;;6.16;53.00;100945.28;2096909;28;20178;-67
2021/12/01 04:31:51;;;;;;;1.30;0.90;;;;;;;6.17;52.75;100948.81;2097936;28;20196;-67
2021/12/01 04:32:52;;;;;;;1.80;1.17;;;;;;;6.17;52.94;100943.31;2098142;28;20221;-66
2021/12/01 04:33:53;;;;;;;2.10;1.10;;;;;;;6.09;53.25;100944.47;2098119;28;20194;-66
2021/12/01 04:34:53;;;;;;;2.17;1.00;;;;;;;6.21;53.38;100955.09;2098072;28;20168;-67
2021/12/01 04:35:54;;;;;;;2.70;1.20;;;;;;;6.19;52.91;100949.19;2098059;28;20175;-66
2021/12/01 04:36:54;;;;;;;3.37;0.90;;;;;;;5.29;53.52;100816.81;2098080;28;20171;-66
2021/12/01 04:37:56;;;;;;;1.73;1.10;;;;;;;6.14;53.63;100953.13;2097820;28;20201;-67
2021/12/01 04:38:57;;;;;;;3.97;1.00;;;;;;;6.24;53.38;100955.09;2098039;28;20172;-66
2021/12/01 04:39:58;;;;;;;1.23;0.90;;;;;;;6.25;53.04;100973.19;2097402;28;20180;-67
2021/12/01 04:40:58;;;;;;;1.70;1.03;;;;;;;6.14;52.96;100953.13;2097460;28;20196;-65
2021/12/01 04:42:06;;;;;;;2.60;1.27;;;;;;;6.24;53.17;100955.09;2097927;28;20223;-67
2021/12/01 04:43:06;;;;;;;2.03;1.05;;;;;;;5.46;52.99;100821.53;2097924;28;20245;-67
2021/12/01 04:44:11;;;;;;;2.20;1.10;;;;;;;5.23;52.67;100774.41;2097969;28;20229;-67
2021/12/01 04:45:17;;;;;;;2.90;1.23;;;;;;;6.38;52.74;100949.59;2097884;28;20178;-66
2021/12/01 04:46:20;;;;;;;2.03;1.10;;;;;;;5.75;52.66;100836.06;2097488;28;20156;-67
2021/12/01 04:47:27;;;;;;;1.08;0.75;;;;;;;6.43;52.26;100934.63;2097622;28;20201;-67
2021/12/01 04:48:29;;;;;;;2.83;1.20;;;;;;;6.45;52.49;100940.50;2098086;28;20171;-66
2021/12/01 04:49:37;;;;;;;2.00;1.27;;;;;;;6.42;52.57;100944.84;2097975;28;20700;-66
2021/12/01 04:50:37;;;;;;;2.30;0.95;;;;;;;6.37;52.29;100939.75;2096912;28;20152;-67
2021/12/01 04:51:40;;;;;;;3.13;1.07;;;;;;;6.43;52.44;100938.16;2097811;28;20169;-66
2021/12/01 04:52:40;;;;;;;1.92;1.33;;;;;;;5.67;51.89;100826.22;2097882;28;20671;-67
2021/12/01 04:53:41;;;;;;;3.37;0.97;;;;;;;6.24;52.14;100905.56;2098052;28;20553;-66
2021/12/01 04:54:41;;;;;;;1.70;1.17;;;;;;;6.41;52.18;100920.47;2097908;28;20171;-66
2021/12/01 04:55:43;;;;;;;3.23;1.17;;;;;;;6.46;51.83;100944.84;2097972;28;20250;-67
2021/12/01 04:56:46;;;;;;;1.98;1.20;;;;;;;6.53;51.51;100940.13;2097898;28;20167;-66
2021/12/01 04:57:47;;;;;;;1.98;1.20;;;;;;;6.54;51.68;100943.63;2097622;28;20562;-67